Schedule Details


Flight Number: CTN650
Departure: Franjo Tudman (LDZA) at 06:30
Arrival: Kastela (LDSP) at 07:20
Route: NIVES Y137 PALEZ L862 OKLAX

Weather Information
LDZA 220330Z 23005KT CAVOK 05/03 Q1015 TEMPO 23008KT
LDSP 220330Z 02005KT CAVOK 12/09 Q1018 NOSIG
Schedule Frequency

Route Map